createdAt,value
2018-01-13T15:05:57.752Z,101250.89
2018-01-13T15:08:29.262Z,101250.97
2018-01-13T15:10:58.386Z,101246.63
2018-01-13T15:13:27.488Z,101244.06
2018-01-13T15:15:57.391Z,101245.87
2018-01-13T15:18:26.524Z,101247.16
2018-01-13T15:20:57.310Z,101248.05
2018-01-13T15:23:26.440Z,101245.30
2018-01-13T15:25:55.650Z,101242.13
2018-01-13T15:28:25.208Z,101242.13
2018-01-13T15:30:55.843Z,101245.23
2018-01-13T15:33:25.063Z,101246.98
2018-01-13T15:35:54.526Z,101247.94
2018-01-13T15:38:23.702Z,101248.78
2018-01-13T15:40:52.827Z,101249.59
2018-01-13T15:43:22.278Z,101254.27
2018-01-13T15:45:52.208Z,101255.45
2018-01-13T15:50:50.975Z,101258.75
2018-01-13T15:53:20.095Z,101253.08
2018-01-13T15:55:49.269Z,101255.77
2018-01-13T15:58:18.693Z,101259.06
2018-01-13T16:00:48.977Z,101262.36
2018-01-13T16:03:48.013Z,101264.61
2018-01-13T16:06:17.460Z,101267.66
2018-01-13T16:08:46.601Z,101260.30
2018-01-13T16:11:15.978Z,101265.55
2018-01-13T16:13:46.822Z,101258.95
2018-01-13T16:16:16.003Z,101262.50
2018-01-13T16:18:45.193Z,101269.27
2018-01-13T16:21:14.669Z,101265.34
2018-01-13T16:23:44.129Z,101261.26
2018-01-13T16:27:15.967Z,101260.14
2018-01-13T16:29:45.195Z,101259.06
2018-01-13T16:32:15.125Z,101252.59
2018-01-13T16:34:44.712Z,101251.20
2018-01-13T16:37:13.883Z,101251.45
2018-01-13T16:39:43.058Z,101253.02
2018-01-13T16:42:12.478Z,101252.72
2018-01-13T16:44:41.586Z,101244.13
2018-01-13T16:47:11.119Z,101248.36
2018-01-13T16:49:41.112Z,101247.13
2018-01-13T16:52:10.495Z,101249.42
2018-01-13T16:54:39.867Z,101244.30
2018-01-13T16:57:09.755Z,101243.86
2018-01-13T16:59:39.241Z,101245.56
2018-01-13T17:02:08.510Z,101243.30
2018-01-13T17:04:37.655Z,101248.03
2018-01-13T17:07:07.840Z,101242.70
2018-01-13T17:09:41.465Z,101242.45
2018-01-13T17:12:11.563Z,101242.12
2018-01-13T17:14:40.989Z,101238.69
2018-01-13T17:17:10.273Z,101240.01
2018-01-13T17:19:39.805Z,101234.59
2018-01-13T17:22:09.346Z,101233.66
2018-01-13T17:24:38.597Z,101231.35
2018-01-13T17:27:08.540Z,101231.96
2018-01-13T17:29:38.076Z,101240.73
2018-01-13T17:32:08.060Z,101228.47
2018-01-13T17:34:37.450Z,101235.96
2018-01-13T17:37:06.919Z,101231.73
2018-01-13T17:39:36.422Z,101233.09
2018-01-13T17:42:07.040Z,101231.53
2018-01-13T17:44:36.119Z,101234.77
2018-01-13T17:47:05.304Z,101237.90
2018-01-13T17:49:35.050Z,101235.77
2018-01-13T17:52:06.540Z,101236.33
2018-01-13T17:54:35.851Z,101232.14
2018-01-13T17:57:06.312Z,101238.58
2018-01-13T17:59:35.706Z,101232.77
2018-01-13T18:02:07.019Z,101231.52
2018-01-13T18:04:36.747Z,101231.16
2018-01-13T18:07:05.894Z,101231.78
2018-01-13T18:09:35.245Z,101241.00
2018-01-13T18:12:05.573Z,101235.16
2018-01-13T18:14:34.963Z,101239.51
2018-01-13T18:17:05.649Z,101224.32
2018-01-13T18:19:35.032Z,101232.59
2018-01-13T18:22:06.374Z,101228.86
2018-01-13T18:24:35.759Z,101234.84
2018-01-13T18:27:04.991Z,101225.69
2018-01-13T18:29:34.604Z,101229.37
2018-01-13T18:32:06.006Z,101237.69
2018-01-13T18:34:35.393Z,101233.16
2018-01-13T18:37:04.622Z,101236.70
2018-01-13T18:39:34.013Z,101235.52
2018-01-13T18:42:05.288Z,101235.91
2018-01-13T18:44:34.378Z,101235.33
2018-01-13T18:47:07.317Z,101235.03
2018-01-13T18:49:36.449Z,101232.41
2018-01-13T18:52:08.606Z,101233.47
2018-01-13T18:54:39.052Z,101232.15
2018-01-13T18:57:08.204Z,101228.80
2018-01-13T18:59:37.315Z,101229.30
2018-01-13T19:02:06.788Z,101225.61
2018-01-13T19:04:35.958Z,101223.42
2018-01-13T19:07:05.727Z,101227.36
2018-01-13T19:09:35.215Z,101221.63
2018-01-13T19:12:06.504Z,101220.52
2018-01-13T19:14:35.979Z,101225.69
2018-01-13T19:17:07.238Z,101216.14
2018-01-13T19:19:36.645Z,101215.95
2018-01-13T19:22:07.400Z,101221.36
2018-01-13T19:24:51.446Z,101219.20
2018-01-13T19:27:20.551Z,101209.97
2018-01-13T19:29:51.365Z,101207.04
2018-01-13T19:32:20.447Z,101207.13
2018-01-13T19:34:49.557Z,101199.37
2018-01-13T19:37:49.456Z,101203.80
2018-01-13T19:40:18.594Z,101200.33
2018-01-13T19:42:48.126Z,101197.52
2018-01-13T19:45:17.206Z,101206.03
2018-01-13T19:47:46.703Z,101208.69
2018-01-13T19:50:18.298Z,101209.25
2018-01-13T19:52:48.474Z,101210.56
2018-01-13T19:55:17.588Z,101209.62
2018-01-13T19:57:46.954Z,101209.13
2018-01-13T20:00:16.576Z,101208.58
2018-01-13T20:02:54.284Z,101206.47
2018-01-13T20:05:23.476Z,101200.96
2018-01-13T20:07:52.782Z,101201.89
2018-01-13T20:10:22.955Z,101200.70
2018-01-13T20:12:52.216Z,101197.67
2018-01-13T20:15:21.663Z,101201.70
2018-01-13T20:17:50.854Z,101203.56
2018-01-13T20:20:19.986Z,101204.05
2018-01-13T20:22:49.240Z,101201.44
2018-01-13T20:25:18.565Z,101199.63
2018-01-13T20:27:47.771Z,101203.23
2018-01-13T20:30:16.913Z,101197.52
2018-01-13T20:32:46.314Z,101195.59
2018-01-13T20:35:15.840Z,101194.40
2018-01-13T20:37:45.097Z,101194.95
2018-01-13T20:40:15.500Z,101191.54
2018-01-13T20:42:46.357Z,101189.41
2018-01-13T20:45:16.156Z,101191.62
2018-01-13T20:47:45.377Z,101186.05
2018-01-13T20:50:14.578Z,101176.05
2018-01-13T20:52:45.877Z,101170.88
2018-01-13T20:55:17.155Z,101163.87
2018-01-13T20:57:46.359Z,101168.70
2018-01-13T21:00:15.519Z,101169.52
2018-01-13T21:02:44.766Z,101166.08
2018-01-13T21:05:13.928Z,101171.75
2018-01-13T21:07:43.479Z,101166.52
2018-01-13T21:10:12.637Z,101172.63
2018-01-13T21:12:41.900Z,101164.35
2018-01-13T21:15:11.848Z,101168.34
2018-01-13T21:17:41.051Z,101170.38
2018-01-13T21:20:10.547Z,101176.37
2018-01-13T21:22:39.712Z,101170.76
2018-01-13T21:25:09.134Z,101174.75
2018-01-13T21:27:38.494Z,101175.30
2018-01-13T21:30:07.755Z,101172.36
2018-01-13T21:32:36.886Z,101177.95
2018-01-13T21:35:06.456Z,101175.77
2018-01-13T21:37:35.868Z,101170.95
2018-01-13T21:40:05.715Z,101171.80
2018-01-13T21:42:35.136Z,101165.66
2018-01-13T21:45:04.666Z,101167.78
2018-01-13T21:47:33.821Z,101175.91
2018-01-13T21:50:04.044Z,101168.06
2018-01-13T21:52:33.224Z,101168.16
2018-01-13T21:55:03.869Z,101169.90
2018-01-13T21:57:33.271Z,101175.98
2018-01-13T22:00:04.237Z,101171.94
2018-01-13T22:02:33.362Z,101162.63
2018-01-13T22:05:03.050Z,101170.40
2018-01-13T22:07:32.415Z,101170.78
2018-01-13T22:10:01.820Z,101162.75
2018-01-13T22:12:31.331Z,101165.49
2018-01-13T22:15:02.015Z,101166.86
2018-01-13T22:17:31.216Z,101171.70
2018-01-13T22:20:00.865Z,101174.43
2018-01-13T22:22:29.967Z,101167.52
2018-01-13T22:24:59.112Z,101164.67
2018-01-13T22:27:28.284Z,101165.13
2018-01-13T22:29:58.191Z,101165.17
2018-01-13T22:32:27.349Z,101156.47
2018-01-13T22:34:56.792Z,101155.37
2018-01-13T22:37:25.937Z,101161.61
2018-01-13T22:39:55.722Z,101159.94
2018-01-13T22:42:24.913Z,101162.90
2018-01-13T22:44:54.010Z,101161.41
2018-01-13T22:47:23.131Z,101158.56
2018-01-13T22:49:52.539Z,101154.70
2018-01-13T22:52:21.628Z,101149.67
2018-01-13T22:54:50.767Z,101152.02
2018-01-13T22:57:20.171Z,101146.81
2018-01-13T22:59:49.291Z,101145.92
2018-01-13T23:02:18.427Z,101146.63
2018-01-13T23:04:48.487Z,101142.95
2018-01-13T23:07:17.626Z,101141.66
2018-01-13T23:09:46.842Z,101131.51
2018-01-13T23:12:16.248Z,101132.32
2018-01-13T23:14:45.540Z,101133.20
2018-01-13T23:17:14.676Z,101131.89
2018-01-13T23:19:44.198Z,101126.61
2018-01-13T23:22:13.302Z,101122.13
2018-01-13T23:24:42.427Z,101121.75
2018-01-13T23:27:20.842Z,101124.80
2018-01-13T23:29:49.992Z,101119.62
2018-01-13T23:32:19.129Z,101129.16
2018-01-13T23:34:48.335Z,101125.13
2018-01-13T23:37:17.409Z,101123.36
2018-01-13T23:39:46.563Z,101124.31
2018-01-13T23:42:15.650Z,101127.53
2018-01-13T23:44:45.144Z,101124.17
2018-01-13T23:47:14.241Z,101125.80
2018-01-13T23:49:43.423Z,101122.30
2018-01-13T23:52:12.524Z,101118.83
2018-01-13T23:54:41.710Z,101124.61
2018-01-13T23:57:11.104Z,101123.03
2018-01-13T23:59:40.193Z,101124.97
